Time;durP1;ratioP1;P1;durP2;ratioP2;P2;SDS_P1;SDS_P2;PMS_P1;PMS_P2;Temp;Humidity;BMP_temperature;BMP_pressure;BME280_temperature;BME280_humidity;BME280_pressure;Samples;Min_cycle;Max_cycle;Signal;HPM_P1;HPM_P2
2022/08/18 00:00:40;;;;;;;35.55;30.35;;;;;;;20.50;93.38;101290.50;5000860;28;20029;-53
2022/08/18 00:03:07;;;;;;;33.85;30.38;;;;;;;20.49;93.11;101292.25;4999978;28;20868;-54
2022/08/18 00:05:33;;;;;;;33.45;29.85;;;;;;;20.48;93.10;101302.72;5000987;28;20435;-54
2022/08/18 00:07:59;;;;;;;35.38;30.45;;;;;;;20.47;93.28;101296.63;4996453;28;20056;-54
2022/08/18 00:10:26;;;;;;;34.17;30.50;;;;;;;20.45;93.49;101293.19;5000490;28;20034;-54
2022/08/18 00:12:51;;;;;;;34.08;29.90;;;;;;;20.43;93.37;101297.47;4998869;28;20044;-54
2022/08/18 00:15:18;;;;;;;35.90;30.27;;;;;;;20.45;93.67;101303.63;4999567;28;20399;-54
2022/08/18 00:17:43;;;;;;;33.30;29.55;;;;;;;20.44;93.85;101301.81;4998953;28;20030;-53
2022/08/18 00:20:15;;;;;;;33.33;29.75;;;;;;;20.42;93.59;101293.13;5003007;28;21354;-54
2022/08/18 00:22:41;;;;;;;34.45;29.70;;;;;;;20.44;93.71;101303.56;5001096;28;20021;-53
2022/08/18 00:25:10;;;;;;;32.92;29.40;;;;;;;20.46;93.80;101299.25;4999934;28;20034;-52
2022/08/18 00:27:36;;;;;;;34.60;30.67;;;;;;;20.47;93.86;101295.78;5000028;28;20038;-52
2022/08/18 00:30:05;;;;;;;33.00;29.60;;;;;;;20.47;93.20;101293.16;5001538;28;20040;-54
2022/08/18 00:32:39;;;;;;;33.47;29.95;;;;;;;20.50;94.08;101308.78;5000557;28;20079;-54
2022/08/18 00:35:12;;;;;;;34.10;30.40;;;;;;;20.50;93.93;101314.88;4998408;28;21187;-54
2022/08/18 00:37:39;;;;;;;33.05;29.63;;;;;;;20.46;93.48;101321.03;4999821;28;21087;-54
2022/08/18 00:40:06;;;;;;;35.78;31.33;;;;;;;20.40;93.97;101317.53;4997596;28;20034;-53
2022/08/18 00:42:32;;;;;;;35.58;31.40;;;;;;;20.39;93.86;101326.25;4995517;28;20026;-53
2022/08/18 00:45:02;;;;;;;33.60;30.00;;;;;;;20.42;93.44;101324.50;5000385;28;20041;-53
2022/08/18 00:47:29;;;;;;;33.45;29.95;;;;;;;20.41;94.00;101327.13;5001671;28;20069;-51
2022/08/18 00:49:54;;;;;;;34.20;29.80;;;;;;;20.44;93.49;101337.53;4998932;28;20464;-54
2022/08/18 00:52:22;;;;;;;36.25;31.02;;;;;;;20.40;93.74;101325.38;4997612;28;20049;-54
2022/08/18 00:54:49;;;;;;;36.80;30.58;;;;;;;20.44;93.91;101332.31;4998269;28;20037;-55
2022/08/18 00:57:17;;;;;;;33.67;30.15;;;;;;;20.37;92.88;101331.47;5000251;28;20041;-50
2022/08/18 00:59:46;;;;;;;33.40;29.80;;;;;;;20.41;92.87;101335.81;4997613;28;20482;-54
2022/08/18 01:02:17;;;;;;;33.55;29.63;;;;;;;20.40;92.66;101320.16;4997824;28;20114;-54
2022/08/18 01:05:00;;;;;;;32.13;27.73;;;;;;;20.44;92.29;101327.09;5003953;28;20083;-54
2022/08/18 01:07:37;;;;;;;32.67;28.05;;;;;;;20.41;91.94;101330.59;5000974;28;20045;-54
2022/08/18 01:10:04;;;;;;;30.77;27.33;;;;;;;20.38;92.21;101329.72;4999740;28;20033;-53
2022/08/18 01:12:30;;;;;;;30.83;27.63;;;;;;;20.34;92.42;101331.50;4999151;28;20454;-54
2022/08/18 01:14:57;;;;;;;31.77;28.38;;;;;;;20.34;92.44;101334.97;4998527;28;20556;-52
2022/08/18 01:23:04;;;;;;;36.30;29.60;;;;;;;20.39;92.81;101323.66;4997805;28;20127;-54
2022/08/18 01:28:18;;;;;;;36.13;31.15;;;;;;;20.31;93.05;101331.50;4997205;28;20120;-54
2022/08/18 01:30:49;;;;;;;33.80;30.30;;;;;;;20.33;92.88;101321.94;5002180;28;20037;-54
2022/08/18 01:33:17;;;;;;;35.88;31.13;;;;;;;20.30;92.58;101324.53;5002190;28;20029;-54
2022/08/18 01:35:48;;;;;;;40.65;31.50;;;;;;;20.26;93.17;101326.31;5003476;28;20049;-54
2022/08/18 01:38:18;;;;;;;38.72;31.75;;;;;;;20.24;93.13;101330.66;5000969;28;20032;-54
2022/08/18 01:40:45;;;;;;;35.08;30.95;;;;;;;20.18;93.26;101325.47;4997330;28;20026;-54
2022/08/18 01:43:11;;;;;;;36.78;31.45;;;;;;;20.17;92.92;101318.50;4997704;28;20056;-53
2022/08/18 01:45:37;;;;;;;33.95;30.35;;;;;;;20.16;93.04;101315.91;4999428;28;20034;-53
2022/08/18 01:48:03;;;;;;;35.45;31.35;;;;;;;20.09;92.58;101318.56;4997772;28;20041;-55
2022/08/18 01:50:30;;;;;;;34.83;30.15;;;;;;;20.12;92.99;101317.66;4998479;28;20434;-53
2022/08/18 01:52:55;;;;;;;35.40;29.48;;;;;;;20.11;92.55;101320.28;5000921;28;21392;-51
2022/08/18 01:55:21;;;;;;;34.63;28.50;;;;;;;20.14;92.24;101317.66;5000789;28;20026;-54
2022/08/18 01:57:46;;;;;;;33.15;29.17;;;;;;;20.12;92.50;101315.06;4999086;28;20091;-54
2022/08/18 02:00:15;;;;;;;34.22;29.05;;;;;;;20.11;92.41;101315.94;5001217;28;20030;-54
2022/08/18 02:02:41;;;;;;;32.35;28.75;;;;;;;20.09;92.14;101315.06;4997882;28;20021;-52
2022/08/18 02:05:13;;;;;;;31.65;28.13;;;;;;;20.09;92.15;101312.47;4998620;28;20406;-54
2022/08/18 02:07:39;;;;;;;32.60;27.70;;;;;;;20.06;91.92;101317.69;4997281;28;20032;-52
2022/08/18 02:10:06;;;;;;;34.20;27.58;;;;;;;20.06;91.58;101313.31;4999719;28;20038;-53
2022/08/18 02:12:32;;;;;;;33.25;28.50;;;;;;;20.06;91.79;101310.72;4997505;28;21325;-54
2022/08/18 02:14:58;;;;;;;31.90;28.23;;;;;;;20.03;91.73;101302.91;4997292;28;20438;-54
2022/08/18 02:17:23;;;;;;;31.02;27.70;;;;;;;20.01;92.01;101306.38;4998957;28;20026;-54
2022/08/18 02:19:49;;;;;;;33.58;28.52;;;;;;;19.97;92.10;101304.69;5002759;28;20393;-54
2022/08/18 02:22:17;;;;;;;30.90;27.60;;;;;;;19.99;91.99;101308.16;4997004;28;20030;-52
2022/08/18 02:24:43;;;;;;;33.47;28.08;;;;;;;19.96;92.00;101315.97;5002315;28;20037;-54
2022/08/18 02:27:10;;;;;;;33.33;27.85;;;;;;;19.94;91.88;101313.38;4998061;28;20042;-54
2022/08/18 02:29:36;;;;;;;31.00;27.55;;;;;;;19.90;92.04;101309.06;4998212;28;20026;-51
2022/08/18 02:32:01;;;;;;;35.92;27.52;;;;;;;19.89;92.15;101315.13;4999293;28;20062;-53
2022/08/18 02:34:27;;;;;;;30.70;27.15;;;;;;;19.88;91.85;101318.63;4996591;28;20149;-53
2022/08/18 02:36:53;;;;;;;29.80;26.60;;;;;;;19.87;91.88;101313.41;5000265;28;20103;-53
2022/08/18 02:39:18;;;;;;;30.27;27.08;;;;;;;19.88;91.99;101317.75;4998876;28;20124;-53
2022/08/18 02:41:44;;;;;;;29.65;26.45;;;;;;;19.86;91.67;101315.16;5000129;28;20037;-52
2022/08/18 02:44:09;;;;;;;29.83;26.48;;;;;;;19.85;91.64;101317.78;4998798;28;20030;-53
2022/08/18 02:46:36;;;;;;;34.42;27.05;;;;;;;19.87;91.50;101316.00;5001035;28;20188;-54
2022/08/18 02:49:03;;;;;;;29.73;26.52;;;;;;;19.84;91.38;101319.50;4999843;28;20081;-52
2022/08/18 02:51:29;;;;;;;29.48;25.73;;;;;;;19.86;91.20;101317.75;4999758;28;20410;-54
2022/08/18 02:53:57;;;;;;;31.70;25.67;;;;;;;19.84;91.20;101319.50;4998721;28;20030;-53
2022/08/18 02:56:28;;;;;;;27.27;24.38;;;;;;;19.87;91.47;101322.09;5000404;28;20041;-54
2022/08/18 02:58:55;;;;;;;29.30;26.20;;;;;;;19.79;91.08;101319.53;4998904;28;20030;-53
2022/08/18 03:01:22;;;;;;;30.10;25.55;;;;;;;19.81;90.89;101315.16;5001521;28;20501;-55
2022/08/18 03:03:49;;;;;;;27.90;25.02;;;;;;;19.77;91.33;101313.41;5003228;28;20037;-53
2022/08/18 03:06:16;;;;;;;29.17;25.90;;;;;;;19.73;90.77;101321.28;5004761;28;20068;-54
2022/08/18 03:08:42;;;;;;;29.45;25.42;;;;;;;19.71;90.63;101321.25;5002074;28;20096;-53
2022/08/18 03:11:07;;;;;;;33.35;26.10;;;;;;;19.67;90.78;101321.28;5003534;28;20053;-53
2022/08/18 03:13:33;;;;;;;28.67;25.60;;;;;;;19.69;90.49;101322.16;5005761;28;20077;-54
2022/08/18 03:15:58;;;;;;;29.73;24.75;;;;;;;19.70;90.26;101326.50;5005496;28;20048;-54
2022/08/18 03:18:24;;;;;;;28.73;25.65;;;;;;;19.68;90.51;101323.91;5003544;28;20419;-54
2022/08/18 03:20:50;;;;;;;29.98;26.52;;;;;;;19.66;90.27;101319.56;5004615;28;20479;-53
2022/08/18 03:23:15;;;;;;;31.48;26.50;;;;;;;19.63;89.88;101322.16;5006205;28;20484;-53
2022/08/18 03:25:48;;;;;;;31.45;25.35;;;;;;;19.65;90.68;101326.50;5005204;28;20053;-53
2022/08/18 03:28:15;;;;;;;27.85;24.85;;;;;;;19.54;90.31;101333.47;5002106;28;20034;-53
2022/08/18 03:30:42;;;;;;;28.30;25.30;;;;;;;19.56;90.22;101334.31;5001133;28;20487;-54
2022/08/18 03:33:07;;;;;;;28.30;25.23;;;;;;;19.57;90.07;101346.47;5003951;28;20037;-52
2022/08/18 03:35:35;;;;;;;29.20;25.92;;;;;;;19.50;90.24;101339.53;5004200;28;20460;-53
2022/08/18 03:38:01;;;;;;;29.27;25.60;;;;;;;19.51;90.07;101338.66;5004463;28;20033;-52
2022/08/18 03:40:27;;;;;;;29.98;26.75;;;;;;;19.49;89.97;101341.28;5002251;28;20284;-53
2022/08/18 03:42:52;;;;;;;30.83;25.92;;;;;;;19.52;89.63;101341.25;5001691;28;20030;-54
2022/08/18 03:45:18;;;;;;;27.52;24.60;;;;;;;19.52;89.54;101351.69;5004775;28;20037;-52
2022/08/18 03:47:44;;;;;;;29.30;25.15;;;;;;;19.50;90.04;101350.84;5000202;28;20068;-54
2022/08/18 03:50:10;;;;;;;27.48;24.52;;;;;;;19.46;89.94;101350.84;5003417;28;20103;-54
2022/08/18 03:52:37;;;;;;;26.67;23.90;;;;;;;19.49;89.42;101345.63;5002986;28;20038;-54
2022/08/18 03:55:03;;;;;;;27.83;24.95;;;;;;;19.39;90.11;101336.94;5004205;28;20037;-55
2022/08/18 03:57:32;;;;;;;28.80;25.15;;;;;;;19.41;90.20;101340.41;5003133;28;20573;-53
2022/08/18 03:59:58;;;;;;;28.48;25.48;;;;;;;19.43;90.33;101349.09;5002385;28;20029;-54
2022/08/18 04:02:23;;;;;;;29.98;26.15;;;;;;;19.43;90.35;101351.72;5002283;28;20029;-53
2022/08/18 04:04:49;;;;;;;31.77;25.65;;;;;;;19.41;90.47;101344.75;5001718;28;20038;-53
2022/08/18 04:07:16;;;;;;;28.88;25.77;;;;;;;19.39;91.05;101341.28;5002455;28;20509;-54
2022/08/18 04:09:42;;;;;;;28.70;25.20;;;;;;;19.40;90.99;101338.66;5003965;28;20021;-54
2022/08/18 04:12:11;;;;;;;30.63;26.25;;;;;;;19.41;90.73;101344.75;5003410;28;20041;-54
2022/08/18 04:14:39;;;;;;;30.50;25.88;;;;;;;19.41;90.52;101339.53;5002235;28;20062;-54
2022/08/18 04:17:05;;;;;;;30.25;25.73;;;;;;;19.36;90.82;101336.94;5003102;28;20048;-53
2022/08/18 04:19:33;;;;;;;29.42;26.17;;;;;;;19.38;90.67;101340.41;5004679;28;20061;-54
2022/08/18 04:21:59;;;;;;;32.92;27.27;;;;;;;19.37;90.86;101332.59;5003219;28;20976;-53
2022/08/18 04:24:27;;;;;;;31.70;25.95;;;;;;;19.38;90.76;101339.56;5004337;28;20030;-53
2022/08/18 04:26:54;;;;;;;29.08;26.00;;;;;;;19.34;91.05;101333.47;5003338;28;20041;-54
2022/08/18 04:29:20;;;;;;;31.33;26.67;;;;;;;19.35;90.55;101339.53;5002014;28;20084;-52
2022/08/18 04:31:46;;;;;;;35.53;26.30;;;;;;;19.35;90.86;101340.41;5001252;28;20850;-50
2022/08/18 04:34:12;;;;;;;31.55;26.42;;;;;;;19.33;90.91;101342.16;5001970;28;20615;-51
2022/08/18 04:36:39;;;;;;;31.63;26.70;;;;;;;19.35;90.40;101343.00;5004584;28;20399;-53
2022/08/18 04:39:08;;;;;;;31.13;27.67;;;;;;;19.32;90.52;101339.56;5002464;28;20026;-54
2022/08/18 04:41:35;;;;;;;35.35;26.55;;;;;;;19.33;90.32;101343.91;5002711;28;20585;-53
2022/08/18 04:44:03;;;;;;;32.05;27.70;;;;;;;19.29;90.60;101351.72;5003145;28;20088;-54
2022/08/18 04:46:33;;;;;;;33.63;28.00;;;;;;;19.22;90.80;101346.50;5000670;28;20040;-54
2022/08/18 04:48:59;;;;;;;32.63;28.10;;;;;;;19.18;91.01;101348.25;5003042;28;20030;-53
2022/08/18 04:51:27;;;;;;;36.53;28.75;;;;;;;19.21;91.16;101347.38;5001244;28;20057;-53
2022/08/18 04:53:53;;;;;;;36.35;28.88;;;;;;;19.22;90.90;101349.97;4997813;28;20482;-54
2022/08/18 04:56:25;;;;;;;33.70;28.70;;;;;;;19.20;91.26;101356.94;5000909;28;20044;-54
2022/08/18 04:59:11;;;;;;;32.85;28.45;;;;;;;19.32;90.78;101357.81;5003684;28;20509;-53
2022/08/18 05:01:38;;;;;;;30.92;27.58;;;;;;;19.21;91.12;101363.88;5000998;28;20511;-53
2022/08/18 05:04:04;;;;;;;33.03;28.77;;;;;;;19.20;90.93;101359.53;5001908;28;20695;-52
2022/08/18 05:06:30;;;;;;;33.97;28.17;;;;;;;19.18;91.10;101363.03;4999044;28;20160;-52
2022/08/18 05:08:59;;;;;;;32.92;28.67;;;;;;;19.21;91.25;101360.41;5002004;28;20482;-54
2022/08/18 05:11:27;;;;;;;;;;;;;;;19.40;89.95;101359.53;5002323;28;20585;-53
2022/08/18 05:13:56;;;;;;;35.60;29.47;;;;;;;19.25;90.79;101356.94;5001644;28;19996;-53
2022/08/18 05:16:21;;;;;;;33.40;28.75;;;;;;;19.20;91.52;101351.72;5002010;28;20425;-54
2022/08/18 05:18:47;;;;;;;35.80;28.60;;;;;;;19.18;91.06;101356.06;5000116;28;20038;-52
2022/08/18 05:21:14;;;;;;;33.30;28.42;;;;;;;19.16;91.37;101355.19;5001520;28;20541;-54
2022/08/18 05:23:46;;;;;;;34.95;28.73;;;;;;;19.20;91.38;101363.88;5002648;28;20044;-54
2022/08/18 05:26:13;;;;;;;31.73;28.33;;;;;;;19.20;91.25;101358.66;5003500;28;20061;-53
2022/08/18 05:28:39;;;;;;;30.60;27.27;;;;;;;19.22;91.82;101357.78;5000932;28;20167;-54
2022/08/18 05:31:12;;;;;;;33.20;29.60;;;;;;;19.21;92.08;101361.28;5000641;28;20478;-53
2022/08/18 05:33:39;;;;;;;33.65;28.63;;;;;;;19.21;92.29;101357.78;5003113;28;20040;-53
2022/08/18 05:36:10;;;;;;;32.63;28.30;;;;;;;19.23;91.98;101374.31;5002340;28;20038;-53
2022/08/18 05:39:12;;;;;;;36.58;29.75;;;;;;;19.29;91.82;101370.00;4999640;28;20038;-54
2022/08/18 05:42:05;;;;;;;36.05;28.73;;;;;;;19.29;92.00;101367.38;4996144;28;20046;-54
2022/08/18 05:44:34;;;;;;;33.47;29.90;;;;;;;19.30;91.79;101370.84;5001350;28;20181;-53
2022/08/18 05:47:27;;;;;;;35.10;29.40;;;;;;;19.36;92.01;101372.59;5001320;28;20525;-52
2022/08/18 05:49:55;;;;;;;32.42;28.92;;;;;;;19.33;91.86;101367.38;4996590;28;20053;-53
2022/08/18 05:52:24;;;;;;;32.97;28.60;;;;;;;19.32;92.33;101374.31;5000256;28;20033;-54
2022/08/18 05:58:08;;;;;;;32.25;28.40;;;;;;;19.43;91.71;101372.59;5001816;28;20055;-54
2022/08/18 06:00:35;;;;;;;36.10;28.58;;;;;;;19.39;91.91;101386.47;5001165;28;20099;-53
2022/08/18 06:03:19;;;;;;;34.03;28.83;;;;;;;19.47;92.40;101389.09;4998336;28;20038;-53
2022/08/18 06:06:11;;;;;;;33.85;28.75;;;;;;;19.49;92.16;101388.22;5003254;28;20061;-54
2022/08/18 06:08:42;;;;;;;37.95;28.40;;;;;;;19.43;93.11;101385.63;4998977;28;20026;-53
2022/08/18 06:11:08;;;;;;;34.28;28.80;;;;;;;19.40;93.66;101383.00;5001981;28;20525;-53
2022/08/18 06:13:39;;;;;;;32.63;28.35;;;;;;;19.52;93.17;101390.81;5000729;28;20127;-54
2022/08/18 06:16:35;;;;;;;34.83;29.33;;;;;;;19.56;92.70;101391.69;5002152;28;20033;-54
2022/08/18 06:19:35;;;;;;;36.70;28.98;;;;;;;19.57;92.57;101390.81;4998434;28;20057;-53
2022/08/18 06:22:20;;;;;;;37.60;29.77;;;;;;;19.57;92.99;101398.66;4999560;28;20033;-53
2022/08/18 06:24:53;;;;;;;38.75;30.33;;;;;;;19.58;93.33;101405.63;5000669;28;20474;-54
2022/08/18 06:27:46;;;;;;;37.55;30.05;;;;;;;19.64;93.05;101394.34;5001772;28;20034;-54
2022/08/18 06:30:18;;;;;;;34.03;30.33;;;;;;;19.61;94.07;101400.44;5003310;28;20725;-53
2022/08/18 06:32:51;;;;;;;41.10;30.33;;;;;;;19.63;94.07;101397.81;5000002;28;20575;-53
2022/08/18 06:35:35;;;;;;;35.75;29.42;;;;;;;19.71;94.08;101393.44;5014206;28;20026;-53
2022/08/18 06:38:38;;;;;;;36.10;30.10;;;;;;;19.80;93.39;101398.66;5002105;28;20046;-52
2022/08/18 06:41:32;;;;;;;38.67;29.70;;;;;;;19.86;93.29;101400.41;5001870;28;20041;-52
2022/08/18 06:44:05;;;;;;;34.78;28.40;;;;;;;19.92;92.75;101408.22;5003416;28;20137;-53
2022/08/18 06:46:42;;;;;;;33.03;27.90;;;;;;;20.02;92.42;101403.00;5005749;28;20080;-53
2022/08/18 06:49:11;;;;;;;36.63;28.92;;;;;;;20.12;92.08;101401.22;5005333;28;20723;-53
2022/08/18 06:51:37;;;;;;;30.77;27.23;;;;;;;20.17;91.28;101403.81;5003019;28;20054;-53
2022/08/18 06:54:17;;;;;;;34.50;27.33;;;;;;;20.28;91.20;101407.25;5005687;28;20034;-52
2022/08/18 06:56:50;;;;;;;32.88;27.77;;;;;;;20.29;91.14;101406.38;5003619;28;20029;-52
2022/08/18 06:59:31;;;;;;;34.38;27.95;;;;;;;20.44;91.02;101406.31;5004195;28;20113;-52
2022/08/18 07:02:23;;;;;;;31.30;27.30;;;;;;;20.54;90.82;101396.75;5001831;28;20513;-53
2022/08/18 07:05:13;;;;;;;29.42;26.23;;;;;;;20.65;90.93;101407.16;4997579;28;20049;-51
2022/08/18 07:07:41;;;;;;;32.70;24.63;;;;;;;20.65;89.21;101408.00;5002064;28;20196;-52
2022/08/18 07:10:27;;;;;;;28.75;25.27;;;;;;;20.72;90.09;101407.09;5001187;28;20053;-50
2022/08/18 07:13:19;;;;;;;29.10;23.48;;;;;;;20.81;88.93;101412.28;5004992;28;20033;-51
2022/08/18 07:15:44;;;;;;;28.20;23.42;;;;;;;20.89;89.01;101414.84;5003243;28;20641;-51
2022/08/18 07:18:12;;;;;;;25.98;23.17;;;;;;;20.96;88.37;101413.94;5003781;28;20037;-51
2022/08/18 07:20:47;;;;;;;25.40;22.42;;;;;;;21.06;88.77;101410.41;5019109;28;20387;-50
2022/08/18 07:23:39;;;;;;;26.33;21.88;;;;;;;21.16;88.10;101411.19;5002970;28;20371;-50
2022/08/18 07:26:17;;;;;;;24.10;19.48;;;;;;;21.23;87.29;101412.00;5005352;28;20032;-51
2022/08/18 07:28:48;;;;;;;23.60;19.73;;;;;;;21.32;87.50;101410.25;5003394;28;20112;-51
2022/08/18 07:31:36;;;;;;;21.35;18.73;;;;;;;21.38;85.82;101415.44;5002788;28;20025;-51
2022/08/18 07:34:19;;;;;;;21.25;18.52;;;;;;;21.46;85.88;101404.03;5002360;28;20022;-49
2022/08/18 07:37:01;;;;;;;21.85;19.40;;;;;;;21.47;86.59;101404.00;5002360;28;20510;-51
2022/08/18 07:39:35;;;;;;;22.60;19.30;;;;;;;21.58;86.99;101406.53;5004348;28;20030;-52
2022/08/18 07:42:13;;;;;;;23.20;18.30;;;;;;;21.64;85.26;101407.34;5002284;28;20026;-52
2022/08/18 07:44:50;;;;;;;19.85;17.45;;;;;;;21.74;85.31;101410.75;5002337;28;20036;-52
2022/08/18 07:47:41;;;;;;;21.83;17.65;;;;;;;21.79;85.70;101413.34;5002661;28;20398;-52
2022/08/18 07:50:06;;;;;;;18.20;16.08;;;;;;;21.67;84.85;101407.34;5002040;28;20556;-50
2022/08/18 07:53:14;;;;;;;19.73;15.93;;;;;;;21.76;85.28;101419.47;5003157;28;20029;-54
2022/08/18 07:55:45;;;;;;;20.45;16.08;;;;;;;21.68;85.32;101416.06;5002538;28;20080;-53
2022/08/18 07:58:43;;;;;;;19.30;15.65;;;;;;;21.76;84.89;101410.75;5003238;28;20080;-53
2022/08/18 08:01:30;;;;;;;17.33;14.43;;;;;;;21.77;84.31;101415.94;5000373;28;20064;-54
2022/08/18 08:04:09;;;;;;;15.73;14.15;;;;;;;21.70;83.84;101409.03;4999406;28;20556;-54
2022/08/18 08:06:52;;;;;;;16.27;13.82;;;;;;;21.67;83.73;101409.09;5008154;28;20034;-54
2022/08/18 08:09:17;;;;;;;16.38;12.23;;;;;;;21.62;82.53;101411.75;5006612;28;20030;-52
2022/08/18 08:12:03;;;;;;;15.45;12.60;;;;;;;21.77;83.73;101408.09;5007107;28;20116;-54
2022/08/18 08:14:50;;;;;;;16.23;12.77;;;;;;;21.88;83.52;101414.09;5007149;28;20022;-54
2022/08/18 08:17:16;;;;;;;18.42;13.25;;;;;;;21.99;84.35;101403.53;5009626;28;20029;-57
2022/08/18 08:19:41;;;;;;;15.13;12.45;;;;;;;22.08;82.43;101407.78;5007656;28;20402;-53
2022/08/18 08:22:35;;;;;;;17.48;11.80;;;;;;;22.26;83.18;101406.75;5006515;28;20036;-52
2022/08/18 08:25:09;;;;;;;13.52;9.40;;;;;;;22.27;81.75;101408.50;5003778;28;20107;-54
2022/08/18 08:27:43;;;;;;;13.30;7.90;;;;;;;22.30;80.86;101419.81;5004029;28;20266;-54
2022/08/18 08:30:13;;;;;;;11.07;6.82;;;;;;;22.32;80.01;101414.53;5004041;28;20037;-53
2022/08/18 08:32:55;;;;;;;11.07;6.93;;;;;;;22.40;79.85;101418.81;5006223;28;20438;-53
2022/08/18 08:35:48;;;;;;;7.85;7.05;;;;;;;22.50;78.24;101422.19;5005159;28;20451;-54
2022/08/18 08:38:20;;;;;;;12.95;7.68;;;;;;;22.65;77.86;101429.88;4992098;28;20033;-56
2022/08/18 08:41:13;;;;;;;9.50;7.00;;;;;;;22.74;77.33;101421.84;5002110;28;20033;-54
2022/08/18 08:43:48;;;;;;;8.00;6.20;;;;;;;22.72;76.45;101422.78;4998896;28;20042;-53
2022/08/18 08:46:19;;;;;;;9.13;6.50;;;;;;;22.69;76.41;101422.81;5004940;28;20034;-57
2022/08/18 08:49:08;;;;;;;8.73;5.93;;;;;;;22.76;76.04;101419.25;5008647;28;20494;-54
2022/08/18 08:51:42;;;;;;;8.35;5.70;;;;;;;22.86;75.57;101435.69;5002833;28;20252;-54
2022/08/18 08:54:11;;;;;;;9.00;5.70;;;;;;;22.93;72.97;101427.78;5002355;28;21499;-54
2022/08/18 08:56:43;;;;;;;9.05;5.32;;;;;;;23.08;73.12;101436.31;5007225;28;20034;-53
2022/08/18 08:59:11;;;;;;;6.03;5.10;;;;;;;23.12;71.92;101435.38;5003847;28;20564;-54
2022/08/18 09:02:04;;;;;;;8.35;5.53;;;;;;;23.12;73.07;101438.88;5005289;28;20045;-54
2022/08/18 09:04:48;;;;;;;6.07;4.60;;;;;;;23.07;71.88;101438.06;5000002;28;20287;-52
2022/08/18 09:07:29;;;;;;;5.38;4.68;;;;;;;23.11;72.14;101433.63;4999410;28;21101;-53
2022/08/18 09:10:06;;;;;;;7.05;5.45;;;;;;;23.09;72.06;101428.41;5000469;28;20394;-53
2022/08/18 09:12:59;;;;;;;8.80;6.05;;;;;;;23.11;72.02;101428.38;5002519;28;20103;-55
2022/08/18 09:15:40;;;;;;;8.40;5.68;;;;;;;23.13;71.74;101434.50;5000993;28;20071;-54
2022/08/18 09:18:29;;;;;;;6.20;5.60;;;;;;;23.11;72.34;101436.25;5003146;28;20091;-55
2022/08/18 09:21:14;;;;;;;7.93;5.75;;;;;;;23.10;72.61;101434.53;5001096;28;20525;-54
2022/08/18 09:23:45;;;;;;;6.55;5.25;;;;;;;23.10;71.52;101439.75;5002707;28;20479;-54
2022/08/18 09:26:43;;;;;;;6.70;6.10;;;;;;;23.09;72.04;101436.28;5000167;28;20758;-54
2022/08/18 09:29:13;;;;;;;10.57;6.32;;;;;;;23.02;73.62;101440.75;5001070;28;20038;-55
2022/08/18 09:31:42;;;;;;;8.68;6.18;;;;;;;22.97;71.78;101433.84;4999698;28;20022;-54
2022/08/18 09:34:40;;;;;;;9.43;5.93;;;;;;;23.05;72.74;101442.44;5002494;28;20517;-53
2022/08/18 09:37:21;;;;;;;8.07;6.38;;;;;;;23.00;72.41;101437.28;5000291;28;20105;-54
2022/08/18 09:43:06;;;;;;;;;;;;;;;23.11;72.88;101429.25;4996399;28;20489;-52
2022/08/18 09:45:31;;;;;;;10.35;6.55;;;;;;;22.97;72.75;101431.22;5008807;28;20036;-54
2022/08/18 09:48:00;;;;;;;6.65;5.93;;;;;;;22.94;71.68;101429.50;5000656;28;20030;-53
2022/08/18 09:50:28;;;;;;;8.85;6.03;;;;;;;22.89;71.51;101431.31;5004788;28;20056;-54
2022/08/18 09:53:14;;;;;;;8.80;6.30;;;;;;;22.95;73.59;101427.75;4998409;28;20037;-52
2022/08/18 09:55:50;;;;;;;8.43;6.57;;;;;;;22.92;71.33;101420.78;4995404;28;20120;-54
2022/08/18 09:58:25;;;;;;;8.77;7.88;;;;;;;22.89;70.54;101426.09;4999550;28;20034;-53
2022/08/18 10:01:28;;;;;;;10.07;8.82;;;;;;;22.91;71.37;101429.53;5006015;28;20041;-52
2022/08/18 10:04:13;;;;;;;10.32;8.20;;;;;;;22.99;71.67;101438.19;5002209;28;20482;-52
2022/08/18 10:06:39;;;;;;;8.80;7.75;;;;;;;23.05;70.89;101437.19;5002549;28;20125;-54
2022/08/18 10:09:29;;;;;;;9.93;7.28;;;;;;;23.23;70.48;101429.06;4998146;28;20112;-54
2022/08/18 10:12:00;;;;;;;11.30;8.60;;;;;;;23.31;70.30;101430.72;4999672;28;20029;-54
2022/08/18 10:14:42;;;;;;;9.93;8.70;;;;;;;23.32;69.77;101422.81;5002743;28;20026;-53
2022/08/18 10:17:43;;;;;;;10.15;9.15;;;;;;;23.51;70.79;101419.00;5001414;28;20026;-53
2022/08/18 10:21:02;;;;;;;11.88;10.43;;;;;;;23.59;68.95;101423.25;4998377;28;20164;-52
2022/08/18 10:23:52;;;;;;;13.82;9.90;;;;;;;23.61;69.86;101413.59;4991065;28;20025;-51
2022/08/18 10:26:29;;;;;;;12.20;10.93;;;;;;;23.60;69.75;101420.63;4996992;28;20038;-50
2022/08/18 10:29:04;;;;;;;13.95;11.88;;;;;;;23.55;69.79;101417.19;5001155;28;20029;-50
2022/08/18 10:31:50;;;;;;;13.10;11.82;;;;;;;23.50;69.04;101417.28;5000279;28;20395;-50
2022/08/18 10:34:44;;;;;;;13.40;12.00;;;;;;;23.69;69.01;101419.63;5007691;28;20195;-51
2022/08/18 10:37:38;;;;;;;13.38;11.93;;;;;;;23.87;69.64;101407.91;5003004;28;20112;-51
2022/08/18 10:40:17;;;;;;;13.25;11.93;;;;;;;23.97;67.54;101407.72;5000706;28;20045;-51
2022/08/18 10:42:49;;;;;;;13.75;10.80;;;;;;;23.93;65.56;101405.19;4998946;28;20038;-50
2022/08/18 10:45:26;;;;;;;11.20;10.10;;;;;;;23.91;65.48;101409.59;5000494;28;20108;-52
2022/08/18 10:48:04;;;;;;;10.75;9.65;;;;;;;23.96;67.58;101408.59;5001668;28;20553;-50
2022/08/18 10:51:01;;;;;;;11.20;10.10;;;;;;;23.93;66.39;101413.91;5001836;28;20056;-53
2022/08/18 10:53:57;;;;;;;9.65;8.75;;;;;;;23.98;67.11;101414.72;4999732;28;20410;-52
2022/08/18 10:56:53;;;;;;;10.45;9.32;;;;;;;23.94;68.13;101415.66;5001710;28;20038;-52
2022/08/18 10:59:30;;;;;;;10.48;9.00;;;;;;;23.85;66.08;101414.97;5001689;28;20060;-51
2022/08/18 11:01:56;;;;;;;10.25;8.70;;;;;;;23.82;67.13;101415.88;5001349;28;20036;-50
2022/08/18 11:04:21;;;;;;;11.57;9.40;;;;;;;23.77;66.48;101412.47;5000520;28;20449;-52
2022/08/18 11:06:50;;;;;;;10.50;9.50;;;;;;;23.76;66.88;101411.59;4993751;28;20041;-52
2022/08/18 11:09:28;;;;;;;12.45;11.25;;;;;;;23.72;67.02;101414.28;5000414;28;20375;-52
2022/08/18 11:11:56;;;;;;;11.40;10.20;;;;;;;23.74;66.71;101416.03;5002699;28;20025;-51
2022/08/18 11:14:47;;;;;;;12.20;10.93;;;;;;;23.78;67.20;101420.34;5001301;28;20030;-50
2022/08/18 11:17:12;;;;;;;12.30;11.10;;;;;;;23.89;66.27;101404.34;4999907;28;20486;-51
2022/08/18 11:19:40;;;;;;;11.35;10.25;;;;;;;24.21;65.19;101397.66;4999659;28;20083;-52
2022/08/18 11:22:20;;;;;;;11.80;10.70;;;;;;;24.49;65.85;101393.56;4999917;28;20482;-51
2022/08/18 11:24:45;;;;;;;12.15;10.43;;;;;;;24.69;63.39;101389.63;5001498;28;20037;-52
2022/08/18 11:27:23;;;;;;;10.80;9.75;;;;;;;24.65;65.37;101386.22;5004995;28;20061;-47
2022/08/18 11:29:50;;;;;;;14.10;10.35;;;;;;;24.58;64.99;101376.75;5001324;28;20022;-50
2022/08/18 11:32:27;;;;;;;11.02;9.90;;;;;;;24.53;65.30;101376.84;5002424;28;20069;-51
2022/08/18 11:34:58;;;;;;;11.57;10.38;;;;;;;24.48;66.04;101372.56;5005015;28;20026;-50
2022/08/18 11:37:25;;;;;;;10.40;9.40;;;;;;;24.38;66.72;101369.25;5003512;28;20494;-51
2022/08/18 11:39:54;;;;;;;11.32;9.73;;;;;;;24.34;67.00;101378.13;5006795;28;20030;-52
2022/08/18 11:42:28;;;;;;;9.88;8.98;;;;;;;24.33;65.56;101381.63;5005294;28;20049;-53
2022/08/18 11:45:01;;;;;;;9.82;8.85;;;;;;;24.22;65.71;101379.22;5005323;28;20112;-52
2022/08/18 11:47:26;;;;;;;11.02;8.38;;;;;;;24.18;65.80;101369.66;5000810;28;20030;-51
2022/08/18 11:50:12;;;;;;;9.30;8.32;;;;;;;24.23;65.33;101366.94;5005605;28;20392;-50
2022/08/18 11:52:51;;;;;;;10.38;9.25;;;;;;;24.17;65.61;101364.44;5004073;28;20132;-50
2022/08/18 11:55:37;;;;;;;11.57;9.80;;;;;;;24.13;63.98;101358.34;5004118;28;20621;-53